KCEZ/CEZ METAR and TAF weather

Enter ICAO airport designator
Station Type Date Time Source
KCEZ METAR 2018/04/21 12:53 UTC NOAA

KCEZ 211253Z AUTO 30010KT 10SM BKN039 OVC047 07/02 A3011 RMK AO2 SLP171 T00670017


Station Type Date Time Source
KCEZ Decoded METAR 2018/04/21 12:53 UTC NOAA

CORTEZ MONTEZUMA COUNTY AIRPORT , CO, United States (KCEZ) 37-18N 108-38W 1797M
Apr 21, 2018 - 08:53 AM EDT / 2018.04.21 1253 UTC
Wind: from the WNW (300 degrees) at 12 MPH (10 KT):0
Visibility: 10 mile(s):0
Sky conditions: overcast
Temperature: 44.1 F (6.7 C)
Dew Point: 35.1 F (1.7 C)
Relative Humidity: 70%
Pressure (altimeter): 30.11 in. Hg (1019 hPa)
ob: KCEZ 211253Z AUTO 30010KT 10SM BKN039 OVC047 07/02 A3011 RMK AO2 SLP171 T00670017
cycle: 13

Station Type Date Time Source
KCEZ TAF UTC NOAA

Error!


Example: see airport list